Bascom, Florida
Current Conditions -  °F | °C
As of 3:14 PM on Saturday 22 Nov 2014 (Local Time) from KMAI Reporting Station
Light Rain Light Rain  
Wind Chill: 60°   Ceiling: 800
Heat Index: 60°   Visibility: 8mi
Dew Point: 60°   Wind: 8mph
Humidity: 100%   Direction: 70°ENE
Pressure: 30.17"   Gusts: NA
Location:  30.93°N, 85.12°W
Report Text: KMAI 222114Z AUTO 07007KT 8SM -RA FEW005 BKN008 OVC023 16/16 A3017 RMK AO2 CIG 007V012 P0000 T01560156 $
Loading
Personal Weather Stations






























Interactive Weather Map New forecast layout! Learn more

10-Day Weather Forecast

Advertisements
Track Severe Weather on mobile